createdAt,value
2023-04-30T00:01:27.945Z,8.00
2023-04-30T00:03:57.302Z,8.00
2023-04-30T00:06:28.384Z,8.00
2023-04-30T00:08:58.958Z,8.00
2023-04-30T00:11:28.027Z,8.00
2023-04-30T00:13:57.151Z,8.00
2023-04-30T00:16:28.660Z,8.00
2023-04-30T00:18:57.123Z,8.00
2023-04-30T00:21:37.620Z,8.00
2023-04-30T00:24:07.961Z,8.10
2023-04-30T00:26:36.360Z,8.10
2023-04-30T00:29:05.278Z,8.10
2023-04-30T00:31:37.386Z,8.20
2023-04-30T00:34:06.191Z,8.20
2023-04-30T00:36:34.666Z,8.20
2023-04-30T00:39:03.193Z,8.20
2023-04-30T00:41:33.940Z,8.30
2023-04-30T00:44:04.860Z,8.30
2023-04-30T00:46:33.699Z,8.30
2023-04-30T00:49:05.267Z,8.30
2023-04-30T00:51:34.781Z,8.30
2023-04-30T00:54:04.176Z,8.30
2023-04-30T00:56:34.450Z,8.20
2023-04-30T00:59:03.210Z,8.30
2023-04-30T01:01:32.102Z,8.30
2023-04-30T01:04:01.216Z,8.30
2023-04-30T01:06:30.111Z,8.20
2023-04-30T01:08:59.656Z,8.20
2023-04-30T01:11:47.024Z,8.20
2023-04-30T01:17:18.988Z,8.20
2023-04-30T01:19:48.051Z,8.20
2023-04-30T01:22:32.232Z,8.20
2023-04-30T01:25:22.792Z,8.20
2023-04-30T01:28:11.908Z,8.30
2023-04-30T01:30:45.561Z,8.30
2023-04-30T01:33:14.269Z,8.30
2023-04-30T01:36:13.185Z,8.20
2023-04-30T01:39:09.987Z,8.30
2023-04-30T01:41:47.111Z,8.20
2023-04-30T01:44:39.853Z,8.20
2023-04-30T01:47:19.289Z,8.20
2023-04-30T01:49:59.175Z,8.20
2023-04-30T01:52:37.921Z,8.30
2023-04-30T01:55:13.089Z,8.20
2023-04-30T01:57:44.747Z,8.20
2023-04-30T02:00:21.354Z,8.20
2023-04-30T02:02:50.314Z,8.10
2023-04-30T02:05:19.004Z,8.10
2023-04-30T02:07:49.627Z,8.10
2023-04-30T02:10:19.721Z,8.10
2023-04-30T02:12:48.608Z,8.00
2023-04-30T02:15:20.094Z,7.90
2023-04-30T02:17:48.734Z,7.90
2023-04-30T02:20:17.373Z,7.80
2023-04-30T02:22:46.069Z,7.70
2023-04-30T02:25:15.436Z,7.60
2023-04-30T02:27:44.492Z,7.60
2023-04-30T02:30:13.728Z,7.60
2023-04-30T02:32:44.741Z,7.50
2023-04-30T02:35:14.848Z,7.40
2023-04-30T02:37:43.538Z,7.30
2023-04-30T02:40:14.969Z,7.20
2023-04-30T02:42:43.912Z,7.20
2023-04-30T02:45:12.767Z,7.10
2023-04-30T02:47:41.480Z,7.10
2023-04-30T02:50:13.071Z,7.00
2023-04-30T02:52:41.929Z,7.00
2023-04-30T02:55:11.494Z,6.80
2023-04-30T02:57:40.421Z,6.70
2023-04-30T03:00:10.152Z,6.60
2023-04-30T03:02:38.809Z,6.50
2023-04-30T03:05:08.833Z,6.50
2023-04-30T03:07:39.505Z,6.50
2023-04-30T03:10:10.211Z,6.40
2023-04-30T03:12:39.508Z,6.40
2023-04-30T03:15:10.071Z,6.40
2023-04-30T03:17:40.115Z,6.40
2023-04-30T03:20:10.291Z,6.40
2023-04-30T03:22:40.466Z,6.40
2023-04-30T03:25:09.975Z,6.50
2023-04-30T03:27:38.455Z,6.50
2023-04-30T03:30:08.426Z,6.50
2023-04-30T03:32:41.273Z,6.50
2023-04-30T03:35:10.720Z,6.50
2023-04-30T03:37:41.789Z,6.50
2023-04-30T03:40:11.191Z,6.40
2023-04-30T03:42:39.939Z,6.40
2023-04-30T03:45:09.659Z,6.40
2023-04-30T03:47:38.434Z,6.30
2023-04-30T03:50:08.173Z,6.40
2023-04-30T03:52:37.563Z,6.40
2023-04-30T03:55:08.874Z,6.40
2023-04-30T03:57:38.198Z,6.50
2023-04-30T04:00:11.394Z,6.50
2023-04-30T04:02:40.271Z,6.60
2023-04-30T04:05:09.464Z,6.60
2023-04-30T04:07:38.382Z,6.60
2023-04-30T04:10:10.197Z,6.70
2023-04-30T04:12:38.684Z,6.70
2023-04-30T04:15:08.596Z,6.70
2023-04-30T04:17:39.428Z,6.70
2023-04-30T04:20:10.915Z,6.70
2023-04-30T04:22:41.680Z,6.70
2023-04-30T04:25:14.031Z,6.70
2023-04-30T04:27:42.884Z,6.70
2023-04-30T04:30:12.378Z,6.70
2023-04-30T04:32:47.073Z,6.60
2023-04-30T04:35:16.112Z,6.60
2023-04-30T04:37:44.609Z,6.70
2023-04-30T04:40:14.716Z,7.30
2023-04-30T04:42:43.330Z,8.00
2023-04-30T04:45:12.265Z,8.80
2023-04-30T04:47:41.570Z,9.30
2023-04-30T04:50:10.762Z,9.40
2023-04-30T04:52:39.330Z,9.30
2023-04-30T04:55:08.514Z,9.20
2023-04-30T04:57:38.998Z,9.00
2023-04-30T05:00:10.142Z,9.10
2023-04-30T05:02:38.848Z,9.20
2023-04-30T05:05:08.333Z,9.30
2023-04-30T05:07:36.985Z,9.20
2023-04-30T05:10:05.944Z,8.90
2023-04-30T05:12:39.970Z,8.70
2023-04-30T05:15:09.915Z,8.60
2023-04-30T05:17:38.980Z,8.50
2023-04-30T05:20:09.056Z,8.60
2023-04-30T05:22:37.542Z,8.60
2023-04-30T05:25:06.888Z,8.40
2023-04-30T05:27:36.433Z,8.30
2023-04-30T05:30:07.744Z,8.10
2023-04-30T05:32:36.705Z,8.00
2023-04-30T05:35:05.414Z,8.10
2023-04-30T05:37:34.030Z,8.10
2023-04-30T05:40:02.601Z,8.40
2023-04-30T05:42:30.975Z,8.80
2023-04-30T05:44:59.584Z,9.10
2023-04-30T05:47:29.836Z,9.30
2023-04-30T05:50:04.640Z,10.00
2023-04-30T05:52:33.423Z,10.80
2023-04-30T05:55:02.476Z,11.40
2023-04-30T05:57:31.311Z,11.90
2023-04-30T06:00:00.010Z,12.00
2023-04-30T06:02:30.270Z,12.10
2023-04-30T06:04:59.620Z,12.30
2023-04-30T06:07:28.523Z,12.50
2023-04-30T06:09:57.737Z,12.60
2023-04-30T06:12:26.574Z,12.70
2023-04-30T06:14:55.559Z,12.60
2023-04-30T06:17:24.005Z,12.20
2023-04-30T06:19:54.426Z,11.60
2023-04-30T06:22:23.297Z,11.50
2023-04-30T06:24:54.862Z,11.80
2023-04-30T06:27:23.644Z,12.20
2023-04-30T06:29:52.365Z,11.90
2023-04-30T06:32:21.128Z,11.40
2023-04-30T06:34:49.610Z,10.80
2023-04-30T06:37:19.692Z,10.40
2023-04-30T06:39:48.381Z,9.90
2023-04-30T06:42:17.021Z,9.70
2023-04-30T06:44:46.167Z,9.40
2023-04-30T06:47:15.146Z,9.20
2023-04-30T06:49:43.775Z,8.90
2023-04-30T06:52:12.299Z,8.70
2023-04-30T06:54:43.059Z,8.70
2023-04-30T06:57:12.475Z,8.80
2023-04-30T06:59:40.816Z,8.90
2023-04-30T07:02:09.632Z,9.00
2023-04-30T07:04:38.130Z,9.20
2023-04-30T07:07:06.512Z,9.40
2023-04-30T07:09:37.506Z,9.60
2023-04-30T07:12:07.330Z,9.70
2023-04-30T07:14:35.729Z,10.20
2023-04-30T07:17:04.019Z,10.80
2023-04-30T07:19:32.680Z,11.60
2023-04-30T07:22:01.173Z,12.90
2023-04-30T07:24:29.717Z,13.90
2023-04-30T07:27:03.012Z,14.70
2023-04-30T07:29:32.949Z,14.60
2023-04-30T07:32:01.394Z,14.10
2023-04-30T07:34:29.918Z,13.40
2023-04-30T07:36:58.290Z,12.60
2023-04-30T07:39:26.698Z,11.90
2023-04-30T07:41:55.351Z,11.40
2023-04-30T07:44:23.871Z,11.00
2023-04-30T07:46:53.745Z,10.70
2023-04-30T07:49:22.407Z,10.50
2023-04-30T07:51:51.086Z,11.30
2023-04-30T07:54:19.364Z,12.00
2023-04-30T07:56:49.021Z,12.80
2023-04-30T07:59:17.832Z,13.70
2023-04-30T08:01:46.319Z,13.70
2023-04-30T08:04:16.365Z,13.10
2023-04-30T08:06:44.853Z,12.60
2023-04-30T08:09:13.356Z,12.20
2023-04-30T08:11:41.815Z,11.90
2023-04-30T08:14:10.340Z,11.60
2023-04-30T08:16:38.725Z,11.50
2023-04-30T08:19:07.149Z,12.00
2023-04-30T08:21:41.028Z,12.80
2023-04-30T08:24:09.731Z,12.90
2023-04-30T08:26:38.269Z,12.70
2023-04-30T08:29:08.412Z,12.30
2023-04-30T08:31:37.471Z,12.20
2023-04-30T08:34:05.969Z,12.40
2023-04-30T08:36:34.171Z,12.10
2023-04-30T08:39:09.759Z,12.10
2023-04-30T08:41:40.695Z,12.10
2023-04-30T08:44:12.104Z,12.00
2023-04-30T08:46:41.736Z,11.70
2023-04-30T08:49:10.153Z,11.70
2023-04-30T08:51:38.789Z,12.80
2023-04-30T08:54:11.823Z,14.00
2023-04-30T08:56:40.280Z,14.50
2023-04-30T08:59:08.842Z,15.70
2023-04-30T09:01:37.156Z,15.80
2023-04-30T09:04:06.567Z,14.80
2023-04-30T09:06:34.991Z,13.90
2023-04-30T09:09:12.761Z,14.60
2023-04-30T09:11:41.939Z,16.00
2023-04-30T09:14:10.428Z,17.30
2023-04-30T09:16:49.156Z,17.40
2023-04-30T09:19:27.159Z,16.40
2023-04-30T09:21:55.702Z,14.90
2023-04-30T09:24:33.171Z,14.50
2023-04-30T09:27:17.687Z,15.40
2023-04-30T09:29:46.330Z,16.70
2023-04-30T09:32:14.709Z,17.80
2023-04-30T09:34:43.487Z,18.20
2023-04-30T09:37:12.459Z,18.20
2023-04-30T09:39:52.532Z,17.40
2023-04-30T09:42:21.251Z,16.00
2023-04-30T09:44:50.111Z,15.70
2023-04-30T09:47:20.469Z,15.80
2023-04-30T09:49:52.357Z,16.20
2023-04-30T09:52:21.674Z,16.80
2023-04-30T09:54:51.419Z,17.50
2023-04-30T09:57:24.337Z,18.50
2023-04-30T09:59:55.159Z,18.60
2023-04-30T10:02:24.866Z,17.80
2023-04-30T10:04:57.213Z,16.60
2023-04-30T10:07:31.773Z,16.40
2023-04-30T10:10:06.384Z,16.90
2023-04-30T10:12:41.392Z,17.80
2023-04-30T10:15:16.314Z,18.40
2023-04-30T10:17:51.393Z,18.20
2023-04-30T10:20:22.653Z,17.20
2023-04-30T10:22:51.959Z,17.00
2023-04-30T10:25:23.103Z,17.90
2023-04-30T10:27:51.692Z,19.00
2023-04-30T10:30:19.928Z,19.20
2023-04-30T10:32:57.513Z,19.40
2023-04-30T10:35:29.965Z,19.40
2023-04-30T10:38:09.059Z,19.60
2023-04-30T10:40:39.273Z,19.90
2023-04-30T10:43:07.793Z,20.10
2023-04-30T10:45:37.914Z,20.10
2023-04-30T10:48:07.788Z,20.10
2023-04-30T10:50:45.013Z,20.00
2023-04-30T10:53:16.987Z,20.10
2023-04-30T10:55:53.221Z,20.20
2023-04-30T10:58:31.010Z,20.70
2023-04-30T11:01:09.202Z,20.60
2023-04-30T11:03:38.578Z,19.20
2023-04-30T11:06:12.765Z,18.00
2023-04-30T11:08:48.297Z,18.60
2023-04-30T11:11:22.124Z,19.20
2023-04-30T11:14:00.749Z,19.60
2023-04-30T11:16:31.638Z,19.40
2023-04-30T11:19:09.502Z,19.60
2023-04-30T11:21:42.265Z,18.50
2023-04-30T11:24:10.551Z,18.20
2023-04-30T11:27:10.803Z,18.60
2023-04-30T11:29:42.671Z,19.40
2023-04-30T11:32:11.072Z,20.00
2023-04-30T11:34:39.623Z,20.50
2023-04-30T11:37:17.064Z,20.60
2023-04-30T11:39:45.581Z,19.80
2023-04-30T11:42:19.342Z,18.30
2023-04-30T11:44:47.914Z,18.00
2023-04-30T11:47:16.576Z,18.10
2023-04-30T11:49:45.077Z,18.90
2023-04-30T11:52:14.850Z,19.20
2023-04-30T11:54:43.104Z,19.70
2023-04-30T11:57:11.484Z,20.30
2023-04-30T11:59:44.342Z,20.20
2023-04-30T12:02:16.721Z,20.00
2023-04-30T12:04:45.302Z,20.50
2023-04-30T12:07:13.673Z,20.60
2023-04-30T12:09:55.171Z,19.60
2023-04-30T12:12:30.541Z,18.30
2023-04-30T12:15:00.277Z,18.10
2023-04-30T12:17:35.734Z,18.70
2023-04-30T12:20:05.277Z,19.20
2023-04-30T12:22:33.764Z,19.80
2023-04-30T12:25:06.959Z,19.90
2023-04-30T12:27:36.600Z,20.20
2023-04-30T12:30:09.729Z,20.70
2023-04-30T12:32:42.719Z,19.40
2023-04-30T12:35:15.565Z,18.50
2023-04-30T12:37:45.626Z,18.10
2023-04-30T12:40:15.235Z,18.70
2023-04-30T12:42:44.796Z,19.40
2023-04-30T12:45:17.972Z,19.90
2023-04-30T12:47:46.303Z,20.30
2023-04-30T12:50:14.646Z,20.50
2023-04-30T12:52:46.317Z,20.90
2023-04-30T12:55:19.738Z,20.60
2023-04-30T12:58:13.372Z,20.30
2023-04-30T13:00:51.988Z,20.30
2023-04-30T13:03:22.430Z,20.40
2023-04-30T13:05:55.816Z,20.60
2023-04-30T13:08:24.253Z,20.00
2023-04-30T13:10:52.455Z,19.90
2023-04-30T13:13:21.320Z,19.70
2023-04-30T13:15:51.101Z,19.50
2023-04-30T13:18:19.430Z,19.10
2023-04-30T13:20:47.759Z,19.30
2023-04-30T13:23:16.064Z,19.10
2023-04-30T13:25:44.314Z,19.10
2023-04-30T13:28:18.639Z,18.30
2023-04-30T13:30:46.824Z,18.60
2023-04-30T13:33:16.467Z,19.20
2023-04-30T13:35:46.585Z,19.60
2023-04-30T13:38:14.797Z,19.70
2023-04-30T13:40:43.242Z,19.50
2023-04-30T13:43:11.480Z,19.70
2023-04-30T13:45:39.712Z,19.90
2023-04-30T13:48:08.722Z,20.00
2023-04-30T13:50:38.892Z,20.30
2023-04-30T13:53:07.082Z,20.50
2023-04-30T13:55:35.650Z,20.50
2023-04-30T13:58:03.939Z,20.20
2023-04-30T14:00:32.337Z,20.30
2023-04-30T14:03:00.955Z,20.20
2023-04-30T14:05:29.349Z,20.20
2023-04-30T14:07:59.164Z,20.00
2023-04-30T14:10:28.172Z,20.00
2023-04-30T14:12:56.362Z,20.40
2023-04-30T14:15:24.656Z,20.30
2023-04-30T14:17:53.099Z,20.40
2023-04-30T14:20:24.937Z,20.30
2023-04-30T14:22:53.266Z,20.10
2023-04-30T14:25:23.008Z,20.10
2023-04-30T14:27:51.172Z,19.40
2023-04-30T14:30:22.369Z,18.90
2023-04-30T14:32:56.987Z,19.50
2023-04-30T14:35:25.355Z,19.70
2023-04-30T14:37:53.530Z,20.20
2023-04-30T14:40:23.415Z,20.40
2023-04-30T14:42:51.834Z,20.50
2023-04-30T14:45:20.028Z,20.60
2023-04-30T14:47:48.483Z,20.60
2023-04-30T14:50:16.836Z,20.00
2023-04-30T14:52:45.119Z,19.60
2023-04-30T14:55:13.392Z,19.40
2023-04-30T14:57:43.190Z,19.60
2023-04-30T15:00:16.129Z,19.80
2023-04-30T15:02:44.403Z,20.00
2023-04-30T15:05:12.974Z,20.60
2023-04-30T15:07:41.197Z,20.70
2023-04-30T15:10:10.586Z,20.80
2023-04-30T15:12:43.632Z,20.80
2023-04-30T15:15:12.945Z,20.10
2023-04-30T15:17:41.472Z,19.50
2023-04-30T15:20:10.671Z,19.10
2023-04-30T15:22:38.913Z,19.20
2023-04-30T15:25:07.976Z,19.40
2023-04-30T15:27:36.860Z,20.00
2023-04-30T15:30:09.509Z,19.70
2023-04-30T15:32:40.490Z,19.40
2023-04-30T15:35:09.576Z,19.30
2023-04-30T15:37:37.919Z,19.30
2023-04-30T15:40:07.046Z,19.20
2023-04-30T15:42:35.714Z,19.70
2023-04-30T15:45:04.056Z,19.90
2023-04-30T15:47:33.900Z,20.10
2023-04-30T15:50:05.013Z,19.80
2023-04-30T15:52:33.203Z,19.80
2023-04-30T15:55:02.219Z,20.30
2023-04-30T15:57:30.553Z,20.60
2023-04-30T16:00:04.399Z,20.50
2023-04-30T16:02:34.207Z,20.40
2023-04-30T16:05:05.106Z,20.60
2023-04-30T16:07:34.077Z,21.00
2023-04-30T16:10:02.906Z,20.50
2023-04-30T16:12:31.154Z,20.70
2023-04-30T16:14:59.398Z,21.00
2023-04-30T16:17:27.753Z,21.10
2023-04-30T16:19:57.572Z,21.10
2023-04-30T16:22:27.435Z,21.00
2023-04-30T16:24:58.865Z,21.00
2023-04-30T16:27:29.685Z,21.50
2023-04-30T16:29:58.347Z,21.60
2023-04-30T16:32:29.930Z,21.90
2023-04-30T16:35:02.244Z,21.90
2023-04-30T16:37:31.164Z,22.00
2023-04-30T16:40:00.204Z,21.40
2023-04-30T16:42:30.119Z,21.10
2023-04-30T16:44:58.488Z,20.80
2023-04-30T16:47:26.839Z,20.70
2023-04-30T16:49:55.715Z,20.70
2023-04-30T16:52:27.163Z,20.10
2023-04-30T16:54:58.107Z,19.10
2023-04-30T16:57:26.491Z,18.40
2023-04-30T16:59:54.870Z,18.00
2023-04-30T17:02:23.262Z,17.60
2023-04-30T17:04:52.424Z,17.20
2023-04-30T17:07:20.740Z,16.80
2023-04-30T17:09:50.680Z,16.40
2023-04-30T17:12:19.021Z,16.10
2023-04-30T17:14:47.192Z,15.40
2023-04-30T17:17:15.800Z,14.70
2023-04-30T17:19:44.063Z,14.10
2023-04-30T17:22:13.140Z,13.50
2023-04-30T17:24:41.485Z,13.10
2023-04-30T17:27:11.148Z,12.80
2023-04-30T17:29:39.536Z,12.50
2023-04-30T17:32:10.461Z,12.30
2023-04-30T17:34:39.179Z,12.20
2023-04-30T17:37:07.391Z,12.10
2023-04-30T17:39:35.772Z,12.10
2023-04-30T17:42:04.779Z,12.00
2023-04-30T17:44:34.629Z,11.90
2023-04-30T17:47:03.478Z,11.80
2023-04-30T17:49:31.653Z,11.70
2023-04-30T17:52:01.247Z,11.60
2023-04-30T17:54:30.619Z,11.40
2023-04-30T17:56:59.661Z,11.40
2023-04-30T17:59:29.912Z,11.40
2023-04-30T18:01:59.741Z,11.20
2023-04-30T18:04:28.263Z,11.10
2023-04-30T18:06:59.088Z,10.90
2023-04-30T18:09:27.401Z,10.70
2023-04-30T18:11:57.031Z,10.50
2023-04-30T18:14:26.407Z,10.30
2023-04-30T18:16:54.890Z,9.90
2023-04-30T18:19:24.701Z,9.70
2023-04-30T18:21:53.231Z,9.40
2023-04-30T18:24:28.480Z,9.20
2023-04-30T18:26:57.080Z,9.00
2023-04-30T18:29:25.280Z,8.80
2023-04-30T18:31:53.545Z,8.60
2023-04-30T18:34:21.737Z,8.40
2023-04-30T18:36:51.506Z,8.30
2023-04-30T18:39:23.001Z,8.20
2023-04-30T18:41:52.062Z,8.00
2023-04-30T18:44:29.373Z,7.80
2023-04-30T18:47:00.360Z,7.70
2023-04-30T18:49:29.157Z,7.60
2023-04-30T18:52:00.594Z,7.50
2023-04-30T18:54:28.821Z,7.50
2023-04-30T18:56:57.083Z,7.40
2023-04-30T18:59:29.908Z,7.30
2023-04-30T19:01:58.191Z,7.30
2023-04-30T19:04:31.709Z,7.30
2023-04-30T19:07:01.271Z,7.20
2023-04-30T19:09:33.375Z,7.10
2023-04-30T19:12:02.270Z,7.00
2023-04-30T19:14:30.512Z,6.80
2023-04-30T19:17:00.304Z,6.60
2023-04-30T19:19:28.892Z,6.40
2023-04-30T19:21:57.405Z,6.30
2023-04-30T19:24:27.492Z,6.20
2023-04-30T19:26:56.513Z,6.20
2023-04-30T19:29:25.998Z,6.20
2023-04-30T19:31:55.133Z,6.20
2023-04-30T19:34:27.752Z,6.10
2023-04-30T19:36:55.991Z,6.00
2023-04-30T19:39:24.267Z,5.90
2023-04-30T19:41:54.038Z,5.80
2023-04-30T19:44:22.249Z,5.60
2023-04-30T19:46:51.237Z,5.50
2023-04-30T19:49:26.034Z,5.40
2023-04-30T19:51:57.977Z,5.30
2023-04-30T19:54:26.263Z,5.20
2023-04-30T19:56:56.020Z,5.20
2023-04-30T19:59:26.855Z,5.10
2023-04-30T20:01:55.158Z,5.00
2023-04-30T20:04:23.532Z,5.00
2023-04-30T20:06:56.920Z,4.90
2023-04-30T20:09:28.034Z,4.80
2023-04-30T20:11:57.884Z,4.70
2023-04-30T20:14:26.347Z,4.60
2023-04-30T20:16:56.426Z,4.60
2023-04-30T20:19:25.260Z,4.50
2023-04-30T20:21:53.737Z,4.40
2023-04-30T20:24:22.732Z,4.30
2023-04-30T20:26:51.068Z,4.20
2023-04-30T20:29:23.143Z,4.20
2023-04-30T20:31:52.019Z,4.10
2023-04-30T20:34:20.507Z,4.00
2023-04-30T20:36:55.260Z,3.90
2023-04-30T20:39:24.337Z,3.90
2023-04-30T20:41:53.369Z,3.80
2023-04-30T20:44:23.102Z,3.80
2023-04-30T20:46:51.436Z,3.80
2023-04-30T20:49:19.767Z,3.70
2023-04-30T20:51:48.064Z,3.60
2023-04-30T20:54:16.389Z,3.60
2023-04-30T20:56:46.783Z,3.50
2023-04-30T20:59:15.415Z,3.40
2023-04-30T21:01:45.423Z,3.30
2023-04-30T21:04:13.742Z,3.30
2023-04-30T21:06:42.638Z,3.20
2023-04-30T21:09:12.507Z,3.20
2023-04-30T21:11:41.163Z,3.10
2023-04-30T21:14:09.901Z,3.10
2023-04-30T21:16:38.203Z,3.00
2023-04-30T21:19:08.010Z,3.00
2023-04-30T21:21:39.058Z,2.90
2023-04-30T21:24:08.852Z,2.90
2023-04-30T21:26:39.748Z,2.90
2023-04-30T21:29:08.124Z,2.90
2023-04-30T21:31:38.296Z,2.80
2023-04-30T21:34:08.110Z,2.70
2023-04-30T21:36:37.547Z,2.70
2023-04-30T21:39:05.853Z,2.70
2023-04-30T21:41:34.170Z,2.60
2023-04-30T21:44:02.647Z,2.60
2023-04-30T21:46:31.084Z,2.50
2023-04-30T21:48:59.589Z,2.40
2023-04-30T21:51:29.340Z,2.40
2023-04-30T21:53:57.685Z,2.40
2023-04-30T21:56:26.217Z,2.30
2023-04-30T21:58:54.561Z,2.30
2023-04-30T22:01:24.491Z,2.30
2023-04-30T22:03:52.777Z,2.20
2023-04-30T22:06:21.244Z,2.20
2023-04-30T22:08:50.921Z,2.20
2023-04-30T22:11:19.176Z,2.20
2023-04-30T22:13:47.383Z,2.20
2023-04-30T22:16:15.701Z,2.10
2023-04-30T22:18:43.982Z,2.10
2023-04-30T22:21:12.253Z,2.10
2023-04-30T22:23:40.732Z,2.00
2023-04-30T22:26:11.477Z,2.00
2023-04-30T22:28:39.766Z,2.00
2023-04-30T22:31:08.059Z,1.90
2023-04-30T22:33:37.668Z,1.90
2023-04-30T22:36:06.722Z,1.80
2023-04-30T22:38:35.454Z,1.80
2023-04-30T22:41:04.796Z,1.80
2023-04-30T22:43:35.117Z,1.70
2023-04-30T22:46:03.516Z,1.70
2023-04-30T22:48:31.972Z,1.70
2023-04-30T22:51:00.271Z,1.60
2023-04-30T22:53:29.337Z,1.60
2023-04-30T22:55:57.618Z,1.60
2023-04-30T22:58:25.907Z,1.50
2023-04-30T23:00:55.735Z,1.50
2023-04-30T23:03:23.980Z,1.50
2023-04-30T23:05:52.276Z,1.40
2023-04-30T23:08:20.572Z,1.30
2023-04-30T23:10:49.319Z,1.30
2023-04-30T23:13:18.448Z,1.20
2023-04-30T23:15:46.714Z,1.20
2023-04-30T23:18:16.357Z,1.20
2023-04-30T23:20:44.645Z,1.20
2023-04-30T23:23:12.906Z,1.10
2023-04-30T23:25:41.405Z,1.10
2023-04-30T23:28:09.648Z,1.10
2023-04-30T23:30:40.100Z,1.00
2023-04-30T23:33:08.545Z,1.00
2023-04-30T23:35:38.228Z,1.00
2023-04-30T23:38:06.462Z,1.00
2023-04-30T23:40:35.305Z,0.90
2023-04-30T23:43:03.627Z,1.00
2023-04-30T23:45:32.395Z,0.90
2023-04-30T23:48:00.781Z,0.90
2023-04-30T23:50:29.098Z,0.90
2023-04-30T23:52:58.754Z,0.80
2023-04-30T23:55:27.255Z,0.70
2023-04-30T23:57:55.492Z,0.70
